createdAt,value
2017-08-25T00:00:49.946Z,98674.86
2017-08-25T00:03:17.397Z,98664.94
2017-08-25T00:05:44.850Z,98651.41
2017-08-25T00:08:12.323Z,98630.73
2017-08-25T00:10:39.765Z,98618.12
2017-08-25T00:13:07.332Z,98604.22
2017-08-25T00:15:34.781Z,98597.13
2017-08-25T00:18:02.237Z,98581.55
2017-08-25T00:20:29.678Z,98568.20
2017-08-25T00:22:57.125Z,98563.49
2017-08-25T00:25:24.593Z,98555.09
2017-08-25T00:27:52.044Z,98530.55
2017-08-25T00:30:19.513Z,98517.66
2017-08-25T00:32:46.984Z,98528.97
2017-08-25T00:35:14.448Z,98526.12
2017-08-25T00:37:41.890Z,98516.17
2017-08-25T00:40:09.360Z,98517.73
2017-08-25T00:42:36.826Z,98528.91
2017-08-25T00:45:04.812Z,98532.50
2017-08-25T00:47:32.301Z,98535.30
2017-08-25T00:49:59.821Z,98550.94
2017-08-25T00:52:27.349Z,98577.22
2017-08-25T00:54:54.836Z,98597.63
2017-08-25T00:57:22.300Z,98600.23
2017-08-25T00:59:49.745Z,98600.47
2017-08-25T01:02:17.213Z,98608.19
2017-08-25T01:04:44.677Z,98602.75
2017-08-25T01:07:12.127Z,98595.52
2017-08-25T01:09:39.585Z,98593.53
2017-08-25T01:12:07.185Z,98598.82
2017-08-25T01:14:34.947Z,98595.05
2017-08-25T01:17:02.714Z,98594.02
2017-08-25T01:19:30.156Z,98589.15
2017-08-25T01:21:57.610Z,98584.05
2017-08-25T01:24:25.076Z,98582.95
2017-08-25T01:26:52.517Z,98578.23
2017-08-25T01:29:19.963Z,98587.66
2017-08-25T01:31:47.442Z,98582.77
2017-08-25T01:34:14.897Z,98589.81
2017-08-25T01:36:42.374Z,98595.80
2017-08-25T01:39:09.854Z,98592.25
2017-08-25T01:41:37.307Z,98594.37
2017-08-25T01:44:04.776Z,98595.11
2017-08-25T01:46:32.241Z,98586.02
2017-08-25T01:48:59.693Z,98596.93
2017-08-25T01:51:27.141Z,98596.56
2017-08-25T01:53:54.610Z,98605.15
2017-08-25T01:56:22.127Z,98603.74
2017-08-25T01:58:49.613Z,98607.80
2017-08-25T02:01:17.064Z,98610.50
2017-08-25T02:03:44.510Z,98605.53
2017-08-25T02:06:11.988Z,98603.52
2017-08-25T02:08:39.453Z,98606.64
2017-08-25T02:11:06.941Z,98598.94
2017-08-25T02:13:34.389Z,98610.67
2017-08-25T02:16:01.861Z,98612.91
2017-08-25T02:18:29.320Z,98608.66
2017-08-25T02:20:56.999Z,98615.78
2017-08-25T02:23:24.449Z,98614.45
2017-08-25T02:25:51.901Z,98608.93
2017-08-25T02:28:19.378Z,98611.51
2017-08-25T02:30:46.819Z,98601.92
2017-08-25T02:33:14.610Z,98612.71
2017-08-25T02:35:42.054Z,98614.95
2017-08-25T02:38:09.502Z,98623.13
2017-08-25T02:40:37.011Z,98621.94
2017-08-25T02:43:04.459Z,98626.81
2017-08-25T02:45:31.933Z,98621.63
2017-08-25T02:47:59.377Z,98619.69
2017-08-25T02:50:26.845Z,98618.19
2017-08-25T02:52:54.289Z,98613.33
2017-08-25T02:55:21.763Z,98611.48
2017-08-25T02:57:49.238Z,98608.55
2017-08-25T03:00:16.687Z,98608.63
2017-08-25T03:02:44.137Z,98611.64
2017-08-25T03:05:11.615Z,98616.03
2017-08-25T03:07:39.055Z,98622.05
2017-08-25T03:10:06.508Z,98619.27
2017-08-25T03:12:33.989Z,98618.92
2017-08-25T03:15:01.458Z,98618.72
2017-08-25T03:17:28.901Z,98618.39
2017-08-25T03:19:56.359Z,98621.49
2017-08-25T03:22:23.829Z,98624.83
2017-08-25T03:24:51.279Z,98621.17
2017-08-25T03:27:18.822Z,98626.20
2017-08-25T03:29:46.266Z,98631.92
2017-08-25T03:32:13.736Z,98630.80
2017-08-25T03:34:41.208Z,98629.55
2017-08-25T03:37:08.661Z,98629.82
2017-08-25T03:39:36.125Z,98627.52
2017-08-25T03:42:03.576Z,98632.00
2017-08-25T03:44:31.021Z,98632.11
2017-08-25T03:46:58.485Z,98633.72
2017-08-25T03:49:25.965Z,98626.95
2017-08-25T03:51:53.414Z,98625.50
2017-08-25T03:54:20.876Z,98625.92
2017-08-25T03:56:48.324Z,98637.84
2017-08-25T03:59:15.794Z,98641.70
2017-08-25T04:01:43.369Z,98648.38
2017-08-25T04:04:10.817Z,98648.42
2017-08-25T04:06:38.609Z,98644.23
2017-08-25T04:09:06.049Z,98649.77
2017-08-25T04:11:33.498Z,98648.84
2017-08-25T04:14:00.989Z,98657.22
2017-08-25T04:16:28.436Z,98663.81
2017-08-25T04:18:55.882Z,98670.19
2017-08-25T04:21:23.357Z,98675.25
2017-08-25T04:23:50.833Z,98673.02
2017-08-25T04:26:18.303Z,98675.37
2017-08-25T04:28:45.746Z,98678.31
2017-08-25T04:31:13.193Z,98682.17
2017-08-25T04:33:40.657Z,98683.84
2017-08-25T04:36:08.104Z,98682.48
2017-08-25T04:38:35.580Z,98685.48
2017-08-25T04:41:03.017Z,98686.12
2017-08-25T04:43:30.489Z,98692.18
2017-08-25T04:45:57.941Z,98684.30
2017-08-25T04:48:25.387Z,98679.80
2017-08-25T04:50:52.964Z,98684.41
2017-08-25T04:53:20.622Z,98692.08
2017-08-25T04:55:48.068Z,98681.73
2017-08-25T04:58:15.551Z,98694.67
2017-08-25T05:00:43.041Z,98685.84
2017-08-25T05:03:10.493Z,98690.18
2017-08-25T05:05:37.973Z,98689.68
2017-08-25T05:08:05.425Z,98700.84
2017-08-25T05:10:32.866Z,98699.52
2017-08-25T05:13:00.337Z,98696.02
2017-08-25T05:15:27.781Z,98693.86
2017-08-25T05:17:55.261Z,98689.68
2017-08-25T05:20:22.709Z,98693.46
2017-08-25T05:22:50.185Z,98697.96
2017-08-25T05:25:17.639Z,98699.00
2017-08-25T05:27:45.096Z,98705.86
2017-08-25T05:30:12.576Z,98708.67
2017-08-25T05:32:40.020Z,98707.26
2017-08-25T05:35:07.481Z,98708.41
2017-08-25T05:37:34.934Z,98715.77
2017-08-25T05:40:02.402Z,98714.72
2017-08-25T05:42:29.848Z,98708.06
2017-08-25T05:44:57.329Z,98707.59
2017-08-25T05:47:24.784Z,98707.05
2017-08-25T05:49:52.269Z,98709.28
2017-08-25T05:52:19.742Z,98710.58
2017-08-25T05:54:47.198Z,98712.30
2017-08-25T05:57:14.669Z,98713.38
2017-08-25T05:59:42.116Z,98714.17
2017-08-25T06:02:09.608Z,98712.87
2017-08-25T06:04:37.075Z,98719.74
2017-08-25T06:07:04.545Z,98720.28
2017-08-25T06:09:31.990Z,98730.09
2017-08-25T06:11:59.471Z,98723.36
2017-08-25T06:14:26.920Z,98725.31
2017-08-25T06:16:54.390Z,98725.09
2017-08-25T06:19:21.836Z,98720.76
2017-08-25T06:21:49.284Z,98722.34
2017-08-25T06:24:16.754Z,98721.98
2017-08-25T06:26:44.221Z,98718.45
2017-08-25T06:29:11.674Z,98719.11
2017-08-25T06:31:39.156Z,98723.69
2017-08-25T06:34:06.606Z,98731.28
2017-08-25T06:36:34.177Z,98735.15
2017-08-25T06:39:01.623Z,98744.16
2017-08-25T06:41:29.074Z,98737.97
2017-08-25T06:43:56.657Z,98732.55
2017-08-25T06:46:24.102Z,98731.41
2017-08-25T06:48:51.567Z,98727.95
2017-08-25T06:51:19.073Z,98727.66
2017-08-25T06:53:46.578Z,98737.23
2017-08-25T06:56:14.068Z,98738.76
2017-08-25T06:58:41.510Z,98742.14
2017-08-25T07:01:08.982Z,98737.16
2017-08-25T07:03:36.448Z,98733.48
2017-08-25T07:06:03.904Z,98737.74
2017-08-25T07:08:31.344Z,98744.20
2017-08-25T07:10:58.814Z,98743.89
2017-08-25T07:13:26.282Z,98740.77
2017-08-25T07:15:53.753Z,98746.23
2017-08-25T07:18:21.215Z,98750.70
2017-08-25T07:20:48.669Z,98750.35
2017-08-25T07:23:16.149Z,98749.09
2017-08-25T07:25:43.877Z,98751.92
2017-08-25T07:28:11.351Z,98746.94
2017-08-25T07:30:38.845Z,98743.56
2017-08-25T07:33:06.325Z,98744.92
2017-08-25T07:35:33.785Z,98742.77
2017-08-25T07:38:01.256Z,98746.48
2017-08-25T07:40:28.706Z,98747.75
2017-08-25T07:42:56.189Z,98746.66
2017-08-25T07:45:23.642Z,98736.28
2017-08-25T07:47:51.113Z,98732.98
2017-08-25T07:50:18.581Z,98739.73
2017-08-25T07:52:46.056Z,98748.50
2017-08-25T07:55:13.507Z,98737.23
2017-08-25T07:57:40.980Z,98729.31
2017-08-25T08:00:08.466Z,98732.55
2017-08-25T08:02:36.074Z,98736.98
2017-08-25T08:05:05.101Z,98737.51
2017-08-25T08:07:32.594Z,98739.84
2017-08-25T08:10:00.077Z,98741.14
2017-08-25T08:12:27.531Z,98741.81
2017-08-25T08:14:54.977Z,98738.44
2017-08-25T08:17:22.857Z,98740.30
2017-08-25T08:19:50.301Z,98739.74
2017-08-25T08:22:17.766Z,98744.32
2017-08-25T08:24:45.244Z,98741.23
2017-08-25T08:27:12.680Z,98741.65
2017-08-25T08:29:40.160Z,98743.59
2017-08-25T08:32:07.606Z,98745.75
2017-08-25T08:34:35.255Z,98738.15
2017-08-25T08:37:02.721Z,98739.98
2017-08-25T08:39:30.178Z,98729.11
2017-08-25T08:41:57.645Z,98728.92
2017-08-25T08:44:25.120Z,98727.98
2017-08-25T08:46:52.560Z,98727.49
2017-08-25T08:49:20.015Z,98722.83
2017-08-25T08:51:47.485Z,98714.67
2017-08-25T08:54:14.922Z,98722.30
2017-08-25T08:56:42.650Z,98721.39
2017-08-25T08:59:10.100Z,98719.13
2017-08-25T09:01:37.549Z,98721.30
2017-08-25T09:04:05.013Z,98725.83
2017-08-25T09:06:36.508Z,98716.16
2017-08-25T09:09:04.002Z,98714.02
2017-08-25T09:11:31.477Z,98716.72
2017-08-25T09:13:59.665Z,98713.55
2017-08-25T09:16:28.246Z,98713.40
2017-08-25T09:18:55.693Z,98708.81
2017-08-25T09:21:23.411Z,98703.77
2017-08-25T09:23:50.909Z,98699.57
2017-08-25T09:26:19.317Z,98708.89
2017-08-25T09:28:46.982Z,98702.66
2017-08-25T09:31:14.823Z,98709.34
2017-08-25T09:33:42.294Z,98707.70
2017-08-25T09:36:10.605Z,98712.62
2017-08-25T09:38:39.405Z,98709.59
2017-08-25T09:41:07.172Z,98702.56
2017-08-25T09:43:34.849Z,98702.66
2017-08-25T09:46:02.319Z,98699.36
2017-08-25T09:48:29.777Z,98697.20
2017-08-25T09:50:57.251Z,98688.84
2017-08-25T09:53:25.860Z,98684.58
2017-08-25T09:55:54.289Z,98683.63
2017-08-25T09:58:21.805Z,98677.89
2017-08-25T10:00:49.294Z,98683.50
2017-08-25T10:03:17.452Z,98683.20
2017-08-25T10:05:46.472Z,98683.22
2017-08-25T10:08:14.022Z,98683.80
2017-08-25T10:10:41.829Z,98679.77
2017-08-25T10:13:09.575Z,98677.95
2017-08-25T10:15:38.201Z,98680.73
2017-08-25T10:18:06.901Z,98680.19
2017-08-25T10:20:34.945Z,98677.48
2017-08-25T10:23:02.457Z,98673.72
2017-08-25T10:25:29.913Z,98676.49
2017-08-25T10:27:58.732Z,98679.08
2017-08-25T10:30:27.613Z,98671.56
2017-08-25T10:32:55.083Z,98672.75
2017-08-25T10:38:45.449Z,98663.15
2017-08-25T10:41:24.592Z,98657.94
2017-08-25T10:44:04.139Z,98663.98
2017-08-25T10:46:31.703Z,98662.61
2017-08-25T10:48:59.425Z,98663.71
2017-08-25T10:51:27.196Z,98666.93
2017-08-25T10:53:54.645Z,98666.09
2017-08-25T10:56:22.080Z,98662.05
2017-08-25T10:58:49.549Z,98665.80
2017-08-25T11:01:16.990Z,98664.68
2017-08-25T11:03:44.461Z,98666.34
2017-08-25T11:06:11.924Z,98653.87
2017-08-25T11:08:39.394Z,98652.34
2017-08-25T11:11:06.943Z,98652.64
2017-08-25T11:13:34.402Z,98651.52
2017-08-25T11:16:01.845Z,98644.00
2017-08-25T11:18:29.324Z,98649.08
2017-08-25T11:20:57.030Z,98645.67
2017-08-25T11:23:24.473Z,98643.47
2017-08-25T11:25:51.957Z,98638.59
2017-08-25T11:28:19.396Z,98643.58
2017-08-25T11:30:46.869Z,98632.04
2017-08-25T11:33:14.321Z,98628.09
2017-08-25T11:35:41.802Z,98627.77
2017-08-25T11:38:09.267Z,98616.49
2017-08-25T11:40:36.746Z,98618.62
2017-08-25T11:43:04.209Z,98612.41
2017-08-25T11:45:31.662Z,98617.25
2017-08-25T11:47:59.141Z,98608.83
2017-08-25T11:50:26.585Z,98606.61
2017-08-25T11:52:54.060Z,98596.44
2017-08-25T11:55:21.516Z,98596.66
2017-08-25T11:57:49.223Z,98598.81
2017-08-25T12:00:16.710Z,98598.78
2017-08-25T12:02:44.161Z,98602.04
2017-08-25T12:05:11.634Z,98597.49
2017-08-25T12:07:39.088Z,98598.41
2017-08-25T12:10:06.578Z,98590.79
2017-08-25T12:12:34.042Z,98595.23
2017-08-25T12:15:01.516Z,98593.25
2017-08-25T12:17:28.974Z,98588.09
2017-08-25T12:19:56.418Z,98590.54
2017-08-25T12:22:23.895Z,98598.44
2017-08-25T12:24:51.342Z,98584.16
2017-08-25T12:27:18.817Z,98587.19
2017-08-25T12:29:46.255Z,98591.89
2017-08-25T12:32:13.965Z,98589.84
2017-08-25T12:34:41.411Z,98581.75
2017-08-25T12:37:08.858Z,98570.45
2017-08-25T12:39:36.337Z,98572.52
2017-08-25T12:42:03.855Z,98566.08
2017-08-25T12:44:31.323Z,98570.50
2017-08-25T12:46:58.769Z,98571.09
2017-08-25T12:49:26.215Z,98566.75
2017-08-25T12:51:53.686Z,98560.27
2017-08-25T12:54:21.162Z,98558.96
2017-08-25T12:56:48.642Z,98560.14
2017-08-25T12:59:16.104Z,98553.84
2017-08-25T13:01:43.573Z,98549.09
2017-08-25T13:04:11.026Z,98547.93
2017-08-25T13:06:38.498Z,98548.05
2017-08-25T13:09:05.945Z,98546.13
2017-08-25T13:11:33.390Z,98540.50
2017-08-25T13:14:00.865Z,98537.72
2017-08-25T13:16:28.303Z,98534.27
2017-08-25T13:18:55.772Z,98543.55
2017-08-25T13:21:23.213Z,98531.25
2017-08-25T13:23:50.691Z,98527.56
2017-08-25T13:26:18.173Z,98528.02
2017-08-25T13:28:45.613Z,98521.94
2017-08-25T13:31:13.302Z,98523.62
2017-08-25T13:33:40.750Z,98524.36
2017-08-25T13:36:08.189Z,98523.36
2017-08-25T13:38:35.665Z,98513.86
2017-08-25T13:41:03.117Z,98516.55
2017-08-25T13:43:30.560Z,98518.32
2017-08-25T13:45:58.022Z,98516.59
2017-08-25T13:48:25.479Z,98514.95
2017-08-25T13:50:52.945Z,98512.77
2017-08-25T13:53:20.412Z,98505.65
2017-08-25T13:55:47.856Z,98509.99
2017-08-25T13:58:15.352Z,98513.17
2017-08-25T14:00:42.798Z,98502.95
2017-08-25T14:03:10.261Z,98504.48
2017-08-25T14:05:37.714Z,98503.34
2017-08-25T14:08:05.161Z,98495.81
2017-08-25T14:10:32.633Z,98497.01
2017-08-25T14:13:00.084Z,98488.88
2017-08-25T14:15:27.535Z,98496.51
2017-08-25T14:17:54.998Z,98495.19
2017-08-25T14:20:22.824Z,98488.12
2017-08-25T14:22:50.280Z,98491.11
2017-08-25T14:25:17.725Z,98488.98
2017-08-25T14:27:45.205Z,98484.27
2017-08-25T14:30:12.657Z,98482.83
2017-08-25T14:32:40.126Z,98481.91
2017-08-25T14:35:07.601Z,98477.80
2017-08-25T14:37:35.070Z,98487.34
2017-08-25T14:40:02.521Z,98481.55
2017-08-25T14:42:30.103Z,98476.83
2017-08-25T14:44:57.553Z,98486.50
2017-08-25T14:47:25.000Z,98476.73
2017-08-25T14:49:52.465Z,98467.89
2017-08-25T14:52:19.909Z,98474.91
2017-08-25T14:54:47.383Z,98471.37
2017-08-25T14:57:14.833Z,98475.33
2017-08-25T14:59:42.287Z,98471.20
2017-08-25T15:02:09.754Z,98465.34
2017-08-25T15:04:37.200Z,98469.65
2017-08-25T15:07:04.706Z,98471.02
2017-08-25T15:09:32.211Z,98467.19
2017-08-25T15:11:59.682Z,98471.27
2017-08-25T15:14:27.136Z,98465.41
2017-08-25T15:16:55.002Z,98469.72
2017-08-25T15:19:22.449Z,98467.56
2017-08-25T15:21:49.893Z,98464.73
2017-08-25T15:24:17.360Z,98458.89
2017-08-25T15:26:44.805Z,98460.02
2017-08-25T15:29:12.269Z,98459.08
2017-08-25T15:31:39.747Z,98453.06
2017-08-25T15:34:07.197Z,98459.38
2017-08-25T15:36:34.665Z,98453.53
2017-08-25T15:39:02.116Z,98455.69
2017-08-25T15:41:29.556Z,98458.73
2017-08-25T15:43:57.022Z,98460.92
2017-08-25T15:46:24.476Z,98452.79
2017-08-25T15:48:51.922Z,98456.41
2017-08-25T15:51:19.390Z,98460.21
2017-08-25T15:53:46.958Z,98461.51
2017-08-25T15:56:14.402Z,98461.36
2017-08-25T15:58:41.882Z,98450.22
2017-08-25T16:01:09.338Z,98456.75
2017-08-25T16:03:36.785Z,98452.07
2017-08-25T16:06:04.258Z,98444.39
2017-08-25T16:08:31.728Z,98451.98
2017-08-25T16:10:59.174Z,98448.19
2017-08-25T16:13:26.648Z,98441.25
2017-08-25T16:15:54.122Z,98437.98
2017-08-25T16:18:21.593Z,98442.84
2017-08-25T16:20:49.057Z,98445.49
2017-08-25T16:23:16.506Z,98446.50
2017-08-25T16:25:43.976Z,98449.46
2017-08-25T16:28:11.432Z,98445.52
2017-08-25T16:30:39.100Z,98444.42
2017-08-25T16:33:06.552Z,98450.64
2017-08-25T16:35:33.996Z,98433.90
2017-08-25T16:38:01.480Z,98438.91
2017-08-25T16:40:28.929Z,98438.02
2017-08-25T16:42:56.405Z,98435.72
2017-08-25T16:45:23.845Z,98438.09
2017-08-25T16:47:51.317Z,98429.97
2017-08-25T16:50:18.770Z,98426.83
2017-08-25T16:52:46.241Z,98425.63
2017-08-25T16:55:13.714Z,98431.10
2017-08-25T16:57:41.153Z,98432.92
2017-08-25T17:00:08.619Z,98430.06
2017-08-25T17:02:36.096Z,98429.37
2017-08-25T17:05:03.573Z,98429.91
2017-08-25T17:07:31.022Z,98423.23
2017-08-25T17:09:58.473Z,98425.41
2017-08-25T17:12:25.942Z,98425.89
2017-08-25T17:14:53.417Z,98419.64
2017-08-25T17:17:20.881Z,98419.74
2017-08-25T17:19:48.348Z,98419.81
2017-08-25T17:22:15.819Z,98420.41
2017-08-25T17:24:43.331Z,98416.72
2017-08-25T17:27:10.788Z,98415.27
2017-08-25T17:29:38.243Z,98422.05
2017-08-25T17:32:05.711Z,98413.66
2017-08-25T17:34:33.190Z,98418.53
2017-08-25T17:37:00.645Z,98424.12
2017-08-25T17:39:28.114Z,98421.20
2017-08-25T17:41:55.955Z,98423.94
2017-08-25T17:44:23.407Z,98432.42
2017-08-25T17:46:50.893Z,98430.42
2017-08-25T17:49:18.363Z,98436.23
2017-08-25T17:51:45.821Z,98430.23
2017-08-25T17:54:13.298Z,98423.03
2017-08-25T17:56:40.750Z,98431.09
2017-08-25T17:59:08.234Z,98428.83
2017-08-25T18:01:35.697Z,98425.05
2017-08-25T18:04:03.170Z,98421.47
2017-08-25T18:06:30.622Z,98425.50
2017-08-25T18:08:58.104Z,98428.86
2017-08-25T18:11:25.546Z,98431.06
2017-08-25T18:13:53.022Z,98430.48
2017-08-25T18:16:20.492Z,98432.92
2017-08-25T18:18:47.973Z,98442.30
2017-08-25T18:21:15.422Z,98437.56
2017-08-25T18:23:42.869Z,98444.00
2017-08-25T18:26:10.340Z,98442.77
2017-08-25T18:28:37.797Z,98448.48
2017-08-25T18:31:05.260Z,98458.67
2017-08-25T18:33:32.730Z,98464.48
2017-08-25T18:36:00.213Z,98463.37
2017-08-25T18:38:27.666Z,98461.41
2017-08-25T18:40:55.117Z,98459.77
2017-08-25T18:43:22.592Z,98466.71
2017-08-25T18:45:50.049Z,98465.59
2017-08-25T18:48:17.520Z,98467.77
2017-08-25T18:50:44.977Z,98469.02
2017-08-25T18:53:12.462Z,98471.41
2017-08-25T18:55:39.917Z,98472.85
2017-08-25T18:58:07.405Z,98467.76
2017-08-25T19:00:34.855Z,98469.44
2017-08-25T19:03:02.308Z,98470.02
2017-08-25T19:05:29.789Z,98470.38
2017-08-25T19:07:57.237Z,98468.05
2017-08-25T19:10:24.894Z,98470.45
2017-08-25T19:12:52.340Z,98463.22
2017-08-25T19:15:19.799Z,98461.85
2017-08-25T19:17:47.264Z,98471.55
2017-08-25T19:20:14.721Z,98463.41
2017-08-25T19:22:42.204Z,98466.80
2017-08-25T19:25:09.685Z,98464.71
2017-08-25T19:27:37.134Z,98459.61
2017-08-25T19:30:04.582Z,98461.31
2017-08-25T19:32:32.049Z,98458.66
2017-08-25T19:34:59.511Z,98469.00
2017-08-25T19:37:26.985Z,98460.73
2017-08-25T19:39:54.433Z,98467.02
2017-08-25T19:42:21.905Z,98461.90
2017-08-25T19:44:49.354Z,98465.81
2017-08-25T19:47:16.794Z,98468.17
2017-08-25T19:49:44.265Z,98467.02
2017-08-25T19:52:11.712Z,98466.69
2017-08-25T19:54:39.164Z,98464.75
2017-08-25T19:57:06.639Z,98458.33
2017-08-25T19:59:34.104Z,98456.49
2017-08-25T20:02:01.572Z,98457.48
2017-08-25T20:04:29.013Z,98452.42
2017-08-25T20:06:56.472Z,98453.02
2017-08-25T20:09:23.946Z,98451.52
2017-08-25T20:11:51.392Z,98449.75
2017-08-25T20:14:18.870Z,98456.86
2017-08-25T20:16:46.358Z,98458.66
2017-08-25T20:19:13.841Z,98462.31
2017-08-25T20:21:41.289Z,98467.95
2017-08-25T20:24:08.764Z,98468.47
2017-08-25T20:26:36.241Z,98467.14
2017-08-25T20:29:03.685Z,98466.48
2017-08-25T20:31:31.144Z,98466.47
2017-08-25T20:33:58.881Z,98465.59
2017-08-25T20:36:26.329Z,98468.41
2017-08-25T20:38:53.781Z,98467.72
2017-08-25T20:41:21.256Z,98467.05
2017-08-25T20:43:48.704Z,98463.20
2017-08-25T20:46:16.177Z,98464.87
2017-08-25T20:48:43.621Z,98464.95
2017-08-25T20:51:11.087Z,98458.24
2017-08-25T20:53:38.538Z,98454.41
2017-08-25T20:56:06.004Z,98451.72
2017-08-25T20:58:33.473Z,98448.56
2017-08-25T21:01:00.934Z,98448.70
2017-08-25T21:03:28.395Z,98445.73
2017-08-25T21:05:55.879Z,98440.39
2017-08-25T21:08:23.353Z,98449.95
2017-08-25T21:10:50.821Z,98448.59
2017-08-25T21:13:18.274Z,98454.20
2017-08-25T21:15:45.742Z,98449.04
2017-08-25T21:18:13.187Z,98451.89
2017-08-25T21:20:40.668Z,98458.42
2017-08-25T21:23:08.145Z,98458.84
2017-08-25T21:25:35.599Z,98448.06
2017-08-25T21:28:03.086Z,98451.19
2017-08-25T21:30:30.540Z,98446.77
2017-08-25T21:32:58.002Z,98443.43
2017-08-25T21:35:25.485Z,98440.84
2017-08-25T21:37:52.965Z,98438.70
2017-08-25T21:40:20.416Z,98437.50
2017-08-25T21:42:47.897Z,98434.86
2017-08-25T21:45:15.341Z,98438.90
2017-08-25T21:47:42.797Z,98441.82
2017-08-25T21:50:10.263Z,98435.04
2017-08-25T21:52:37.706Z,98438.09
2017-08-25T21:55:05.177Z,98439.01
2017-08-25T21:57:32.621Z,98445.55
2017-08-25T22:00:00.098Z,98441.73
2017-08-25T22:02:27.547Z,98441.05
2017-08-25T22:04:55.024Z,98432.53
2017-08-25T22:07:22.469Z,98423.42
2017-08-25T22:09:49.917Z,98423.25
2017-08-25T22:12:17.888Z,98435.81
2017-08-25T22:14:45.327Z,98438.98
2017-08-25T22:17:12.776Z,98435.59
2017-08-25T22:19:40.241Z,98440.44
2017-08-25T22:22:07.697Z,98437.52
2017-08-25T22:24:35.147Z,98437.47
2017-08-25T22:27:02.629Z,98431.63
2017-08-25T22:29:30.078Z,98431.89
2017-08-25T22:31:57.549Z,98437.14
2017-08-25T22:34:24.988Z,98443.08
2017-08-25T22:36:52.479Z,98444.91
2017-08-25T22:39:19.925Z,98432.84
2017-08-25T22:41:47.405Z,98441.89
2017-08-25T22:44:14.845Z,98437.94
2017-08-25T22:46:42.386Z,98436.12
2017-08-25T22:49:09.881Z,98435.71
2017-08-25T22:51:37.327Z,98430.79
2017-08-25T22:54:04.785Z,98436.31
2017-08-25T22:56:32.252Z,98428.78
2017-08-25T22:58:59.726Z,98422.73
2017-08-25T23:01:27.201Z,98422.63
2017-08-25T23:03:54.658Z,98415.13
2017-08-25T23:06:22.126Z,98420.19
2017-08-25T23:08:49.573Z,98416.94
2017-08-25T23:11:17.048Z,98422.61
2017-08-25T23:13:44.520Z,98419.09
2017-08-25T23:16:11.978Z,98415.06
2017-08-25T23:18:39.460Z,98415.37
2017-08-25T23:21:06.905Z,98423.05
2017-08-25T23:23:34.370Z,98418.08
2017-08-25T23:26:01.813Z,98416.56
2017-08-25T23:28:29.296Z,98414.69
2017-08-25T23:30:56.768Z,98414.56
2017-08-25T23:33:24.244Z,98407.97
2017-08-25T23:35:51.835Z,98407.84
2017-08-25T23:38:19.287Z,98404.64
2017-08-25T23:40:46.735Z,98402.41
2017-08-25T23:43:14.218Z,98400.28
2017-08-25T23:45:41.725Z,98398.16
2017-08-25T23:48:09.185Z,98388.18
2017-08-25T23:50:37.409Z,98400.21
2017-08-25T23:53:04.882Z,98395.51
2017-08-25T23:55:32.360Z,98396.05
2017-08-25T23:57:59.831Z,98394.11
